Time;durP1;ratioP1;P1;durP2;ratioP2;P2;SDS_P1;SDS_P2;PMS_P1;PMS_P2;Temp;Humidity;BMP_temperature;BMP_pressure;BME280_temperature;BME280_humidity;BME280_pressure;Samples;Min_cycle;Max_cycle;Signal;HPM_P1;HPM_P2
2022/11/30 00:01:23;;;;;;;17.40;8.17;;;8.40;99.90;;;8.75;100.00;101045.47;5039783;28;21191;-64
2022/11/30 00:03:55;;;;;;;22.93;8.13;;;8.50;99.90;;;8.78;100.00;101047.88;5047141;28;20654;-65
2022/11/30 00:06:23;;;;;;;24.90;10.07;;;8.50;99.90;;;8.78;100.00;101047.88;5032533;28;20649;-65
2022/11/30 00:08:57;;;;;;;20.87;9.53;;;8.50;99.90;;;8.76;100.00;101047.13;5010211;28;20826;-65
2022/11/30 00:11:27;;;;;;;18.33;8.80;;;8.50;99.90;;;8.73;100.00;101049.88;5021262;28;20736;-65
2022/11/30 00:13:54;;;;;;;22.53;9.43;;;8.50;99.90;;;8.68;100.00;101045.88;5026168;28;20664;-65
2022/11/30 00:16:21;;;;;;;21.60;9.90;;;8.50;99.90;;;8.57;100.00;101046.50;5018615;28;20838;-65
2022/11/30 00:18:49;;;;;;;26.10;9.83;;;8.40;99.90;;;8.65;100.00;101046.91;5010490;28;20629;-65
2022/11/30 00:21:17;;;;;;;20.67;8.30;;;8.40;99.90;;;8.70;100.00;101046.63;5026195;28;20682;-64
2022/11/30 00:23:46;;;;;;;19.70;8.97;;;8.50;99.90;;;8.52;100.00;101043.31;5040821;28;20632;-65
2022/11/30 00:26:16;;;;;;;26.27;9.93;;;8.40;99.90;;;8.60;100.00;101038.53;5013263;28;20640;-64
2022/11/30 00:28:44;;;;;;;17.63;8.07;;;8.40;99.90;;;8.67;100.00;101039.84;5012817;28;20641;-64
2022/11/30 00:31:14;;;;;;;18.90;8.97;;;8.40;99.90;;;8.60;100.00;101041.13;5023356;28;21013;-65
2022/11/30 00:33:41;;;;;;;23.93;9.43;;;8.40;99.90;;;8.63;100.00;101040.94;5012769;28;20665;-64
2022/11/30 00:36:14;;;;;;;12.10;6.70;;;8.40;99.90;;;8.70;100.00;101044.88;5020023;28;20640;-64
2022/11/30 00:38:42;;;;;;;21.53;8.90;;;8.40;99.90;;;8.66;100.00;101037.34;5029078;28;20636;-64
2022/11/30 00:41:10;;;;;;;22.30;9.30;;;8.40;99.90;;;8.56;100.00;101032.66;5028276;28;20774;-64
2022/11/30 00:43:37;;;;;;;21.57;9.23;;;8.40;99.90;;;8.57;100.00;101033.50;5029920;28;20640;-64
2022/11/30 00:46:05;;;;;;;22.13;9.33;;;8.40;99.90;;;8.46;100.00;101038.47;5028069;28;20637;-65
2022/11/30 00:48:32;;;;;;;21.50;8.67;;;8.30;99.90;;;8.57;100.00;101038.69;5030517;28;20631;-64
2022/11/30 00:50:58;;;;;;;29.40;10.10;;;8.30;99.90;;;8.43;100.00;101036.88;5027427;28;20657;-65
2022/11/30 00:53:26;;;;;;;18.70;9.00;;;8.30;99.90;;;8.43;100.00;101046.47;5029741;28;21017;-64
2022/11/30 00:55:53;;;;;;;19.07;8.73;;;8.30;99.90;;;8.49;100.00;101038.31;5026463;28;20632;-65
2022/11/30 00:58:20;;;;;;;25.73;8.33;;;8.30;99.90;;;8.36;100.00;101043.38;5031433;28;20631;-65
2022/11/30 01:00:47;;;;;;;23.23;8.63;;;8.20;99.90;;;8.47;100.00;101042.75;5026439;28;21241;-65
2022/11/30 01:03:14;;;;;;;16.70;7.93;;;8.20;99.90;;;8.48;100.00;101047.00;5061613;28;21198;-64
2022/11/30 01:05:42;;;;;;;24.43;9.20;;;8.20;99.90;;;8.55;100.00;101048.34;5031838;28;20640;-64
2022/11/30 01:08:10;;;;;;;20.93;9.27;;;8.30;99.90;;;8.30;100.00;101040.28;5027880;28;20632;-65
2022/11/30 01:10:40;;;;;;;19.60;9.27;;;8.20;99.90;;;8.38;100.00;101046.72;5012213;28;20664;-65
2022/11/30 01:13:07;;;;;;;26.67;8.00;;;8.20;99.90;;;8.39;100.00;101048.38;5021676;28;20633;-65
2022/11/30 01:15:40;;;;;;;28.60;9.10;;;8.20;99.90;;;8.46;100.00;101057.53;5011076;28;20669;-65
2022/11/30 01:18:07;;;;;;;21.23;9.30;;;8.20;99.90;;;8.48;100.00;101062.63;5026686;28;20627;-65
2022/11/30 01:20:34;;;;;;;26.83;10.13;;;8.20;99.90;;;8.57;100.00;101068.16;5020915;28;20657;-65
2022/11/30 01:23:01;;;;;;;20.97;9.53;;;8.30;99.90;;;8.51;100.00;101063.31;5046568;28;20632;-65
2022/11/30 01:25:28;;;;;;;23.80;10.00;;;8.30;99.90;;;8.64;100.00;101073.00;5032188;28;20619;-65
2022/11/30 01:27:55;;;;;;;20.13;7.77;;;8.30;99.90;;;8.53;100.00;101068.41;5027892;28;20635;-65
2022/11/30 01:30:22;;;;;;;23.83;9.60;;;8.30;99.90;;;8.60;100.00;101069.75;5026425;28;20660;-66
2022/11/30 01:32:48;;;;;;;27.90;10.20;;;8.30;99.90;;;8.64;100.00;101060.84;5042394;28;20835;-65
2022/11/30 01:35:15;;;;;;;24.53;10.43;;;8.40;99.90;;;8.63;100.00;101059.16;5031649;28;20657;-65
2022/11/30 01:37:42;;;;;;;28.07;12.00;;;8.40;99.90;;;8.54;100.00;101060.50;5027818;28;20625;-65
2022/11/30 01:40:11;;;;;;;21.37;7.80;;;8.40;99.90;;;8.60;100.00;101054.97;5031844;28;21108;-66
2022/11/30 01:42:44;;;;;;;20.30;7.83;;;8.40;99.90;;;8.67;100.00;101059.84;5033046;28;20645;-64
2022/11/30 01:45:12;;;;;;;23.87;10.23;;;8.40;99.90;;;8.69;100.00;101061.41;5045924;28;20685;-65
2022/11/30 01:47:54;;;;;;;26.13;10.50;;;8.40;99.90;;;8.66;100.00;101069.41;5021891;28;20640;-65
2022/11/30 01:50:27;;;;;;;26.90;10.90;;;8.40;99.90;;;8.67;100.00;101060.66;5032883;28;20650;-66
2022/11/30 01:52:56;;;;;;;22.67;10.57;;;8.40;99.90;;;8.72;100.00;101060.41;5025606;28;20720;-65
2022/11/30 01:55:36;;;;;;;28.30;12.20;;;8.40;99.90;;;8.66;100.00;101061.59;5030346;28;21247;-65
2022/11/30 01:58:08;;;;;;;22.10;10.57;;;8.40;99.90;;;8.70;100.00;101050.09;5009961;28;20628;-65
2022/11/30 02:00:35;;;;;;;27.73;10.13;;;8.40;99.90;;;8.63;100.00;101053.94;5032054;28;20648;-65
2022/11/30 02:03:22;;;;;;;35.07;12.40;;;8.40;99.90;;;8.77;100.00;101061.81;5030958;28;20621;-64
2022/11/30 02:05:49;;;;;;;28.67;11.17;;;8.40;99.90;;;8.71;100.00;101056.94;5030744;28;20991;-65
2022/11/30 02:08:16;;;;;;;26.20;9.30;;;8.40;99.90;;;8.60;100.00;101059.34;5028709;28;20635;-65
2022/11/30 02:10:51;;;;;;;21.33;9.40;;;8.40;99.90;;;8.66;100.00;101061.59;5016504;28;21110;-64
2022/11/30 02:13:42;;;;;;;24.70;11.00;;;8.40;99.90;;;8.48;100.00;101060.88;5018008;28;20636;-65
2022/11/30 02:16:45;;;;;;;29.63;12.53;;;8.40;99.90;;;8.58;100.00;101062.00;5030280;28;21591;-65
2022/11/30 02:19:31;;;;;;;29.63;11.47;;;8.40;99.90;;;8.56;100.00;101052.66;5035395;28;21552;-64
2022/11/30 02:22:52;;;;;;;29.67;12.50;;;8.30;99.90;;;8.44;100.00;101054.16;5027869;22;20677;-65
2022/11/30 02:26:06;;;;;;;25.30;10.13;;;8.30;99.90;;;8.60;100.00;101060.16;5030419;28;20663;-65
2022/11/30 02:29:36;;;;;;;25.03;8.73;;;8.30;99.90;;;8.56;100.00;101057.84;5025685;28;20620;-65
2022/11/30 02:32:11;;;;;;;16.87;8.27;;;8.30;99.90;;;8.24;100.00;101062.19;4937425;29;21107;-65
2022/11/30 02:34:41;;;;;;;36.67;12.30;;;8.20;99.90;;;8.39;100.00;101055.38;4993484;28;21229;-66
2022/11/30 02:37:11;;;;;;;28.53;12.10;;;8.20;99.90;;;8.40;100.00;101059.63;5008175;28;20617;-65
2022/11/30 02:39:38;;;;;;;31.13;10.43;;;8.20;99.90;;;8.32;100.00;101064.41;5008971;28;20622;-64
2022/11/30 02:42:13;;;;;;;35.60;13.33;;;8.20;99.90;;;8.41;100.00;101063.91;5011917;28;20995;-63
2022/11/30 02:44:46;;;;;;;25.70;11.67;;;8.20;99.90;;;8.31;100.00;101067.94;5007104;28;20635;-64
2022/11/30 02:47:21;;;;;;;29.50;11.27;;;8.10;99.90;;;8.35;100.00;101069.44;5012585;28;20651;-64
2022/11/30 02:50:00;;;;;;;35.30;12.67;;;8.20;99.90;;;8.46;100.00;101067.06;4997012;28;20641;-65
2022/11/30 02:52:29;;;;;;;35.53;11.40;;;8.20;99.90;;;8.45;100.00;101066.22;5007832;28;20686;-65
2022/11/30 02:55:05;;;;;;;27.00;10.63;;;8.20;99.90;;;8.47;100.00;101058.38;4992502;28;20663;-63
2022/11/30 02:57:33;;;;;;;27.43;10.60;;;8.20;99.90;;;8.51;100.00;101068.50;4991475;28;20613;-64
2022/11/30 03:00:05;;;;;;;32.07;13.00;;;8.30;99.90;;;8.55;100.00;101064.81;4999233;28;20649;-64
2022/11/30 03:02:33;;;;;;;33.10;10.93;;;8.30;99.90;;;8.49;100.00;101062.56;5009717;28;20695;-65
2022/11/30 03:05:00;;;;;;;17.07;9.00;;;8.30;99.90;;;8.49;100.00;101067.75;5009531;28;20633;-66
2022/11/30 03:07:27;;;;;;;26.00;11.20;;;8.20;99.90;;;8.50;100.00;101068.56;4990557;28;20643;-65
2022/11/30 03:09:54;;;;;;;26.23;10.10;;;8.30;99.90;;;8.36;100.00;101069.38;4992028;28;20697;-65
2022/11/30 03:12:21;;;;;;;23.17;8.87;;;8.20;99.90;;;8.42;100.00;101063.81;5001145;28;21265;-64
2022/11/30 03:14:48;;;;;;;20.37;8.87;;;8.20;99.90;;;8.48;100.00;101067.81;4999248;28;20683;-63
2022/11/30 03:17:15;;;;;;;23.43;8.73;;;8.20;99.90;;;8.39;100.00;101068.38;5009721;28;21181;-63
2022/11/30 03:19:42;;;;;;;24.00;9.77;;;8.20;99.90;;;8.50;100.00;101068.56;4994327;28;20696;-63
2022/11/30 03:22:09;;;;;;;29.37;11.13;;;8.20;99.90;;;8.44;100.00;101069.78;4991135;28;20676;-63
2022/11/30 03:24:36;;;;;;;20.93;8.60;;;8.30;99.90;;;8.52;100.00;101069.31;5004367;28;20628;-63
2022/11/30 03:27:03;;;;;;;33.07;11.87;;;8.30;99.90;;;8.46;100.00;101070.53;4993743;28;20709;-64
2022/11/30 03:29:30;;;;;;;29.20;11.13;;;8.20;99.90;;;8.51;100.00;101072.88;4990577;28;20734;-64
2022/11/30 03:31:57;;;;;;;30.23;10.60;;;8.20;99.90;;;8.47;100.00;101076.56;4992042;28;20660;-63
2022/11/30 03:34:26;;;;;;;29.43;10.77;;;8.20;99.90;;;8.49;100.00;101077.31;4999002;28;20756;-64
2022/11/30 03:36:53;;;;;;;30.60;10.77;;;8.20;99.90;;;8.51;100.00;101081.50;5011412;28;21277;-64
2022/11/30 03:39:20;;;;;;;26.80;12.33;;;8.30;99.90;;;8.38;100.00;101083.13;4998534;28;21206;-64
2022/11/30 03:41:47;;;;;;;23.53;8.97;;;8.20;99.90;;;8.36;100.00;101082.38;4991030;28;20629;-63
2022/11/30 03:44:14;;;;;;;23.43;9.77;;;8.20;99.90;;;8.36;100.00;101084.97;4995425;28;20637;-63
2022/11/30 03:46:41;;;;;;;28.03;9.97;;;8.20;99.90;;;8.40;100.00;101083.88;4990913;28;20641;-64
2022/11/30 03:49:08;;;;;;;29.87;9.70;;;8.20;99.90;;;8.48;100.00;101080.81;4990603;28;20635;-65
2022/11/30 03:51:35;;;;;;;27.33;10.70;;;8.20;99.90;;;8.55;100.00;101080.41;4990582;28;20637;-65
2022/11/30 03:54:02;;;;;;;26.43;10.10;;;8.20;99.90;;;8.57;100.00;101072.50;5005110;28;20633;-65
2022/11/30 03:56:29;;;;;;;28.63;10.30;;;8.30;99.90;;;8.63;100.00;101073.91;5014442;28;20625;-65
2022/11/30 03:58:56;;;;;;;25.27;11.23;;;8.30;99.90;;;8.52;100.00;101082.31;5000627;28;20627;-65
2022/11/30 04:01:23;;;;;;;32.90;12.40;;;8.30;99.90;;;8.66;100.00;101081.56;4996612;28;20665;-65
2022/11/30 04:03:51;;;;;;;37.37;11.20;;;8.30;99.90;;;8.67;100.00;101084.06;5018437;28;20624;-65
2022/11/30 04:06:20;;;;;;;35.53;12.30;;;8.40;99.90;;;8.48;100.00;101091.22;5012418;28;20641;-64
2022/11/30 04:08:47;;;;;;;29.37;11.67;;;8.30;99.90;;;8.57;100.00;101083.75;4995451;28;20661;-65
2022/11/30 04:11:14;;;;;;;29.43;11.50;;;8.30;99.90;;;8.63;100.00;101090.38;4992973;28;20654;-65
2022/11/30 04:13:42;;;;;;;25.87;10.60;;;8.30;99.90;;;8.64;100.00;101086.84;5003636;28;20642;-63
2022/11/30 04:16:10;;;;;;;25.50;9.90;;;8.40;99.90;;;8.55;100.00;101093.41;4997762;28;20669;-63
2022/11/30 04:18:38;;;;;;;30.70;12.10;;;8.30;99.90;;;8.56;100.00;101089.06;5008071;28;20622;-63
2022/11/30 04:21:06;;;;;;;25.27;9.63;;;8.30;99.90;;;8.58;100.00;101082.00;4993390;28;20680;-64
2022/11/30 04:23:37;;;;;;;21.00;9.07;;;8.30;99.90;;;8.68;100.00;101087.50;4998417;28;20629;-62
2022/11/30 04:26:06;;;;;;;32.50;10.50;;;8.40;99.90;;;8.59;100.00;101086.28;5012821;28;20618;-63
2022/11/30 04:28:34;;;;;;;28.60;10.53;;;8.40;99.90;;;8.64;100.00;101080.81;5003677;28;20691;-63
2022/11/30 04:31:01;;;;;;;29.50;10.73;;;8.40;99.90;;;8.64;100.00;101080.81;4993515;28;20641;-64
2022/11/30 04:33:29;;;;;;;33.40;12.63;;;8.40;99.90;;;8.61;100.00;101084.41;5012700;28;20688;-63
2022/11/30 04:36:00;;;;;;;26.27;10.17;;;8.30;99.90;;;8.50;100.00;101081.56;5013990;28;21326;-64
2022/11/30 04:38:28;;;;;;;28.73;11.33;;;8.30;99.90;;;8.63;100.00;101084.31;5009004;28;20637;-65
2022/11/30 04:40:55;;;;;;;22.87;9.33;;;8.30;99.90;;;8.47;100.00;101079.16;4994742;28;20638;-64
2022/11/30 04:43:22;;;;;;;28.43;9.53;;;8.30;99.90;;;8.64;100.00;101081.66;5005136;28;20651;-63
2022/11/30 04:45:50;;;;;;;28.77;11.60;;;8.30;99.90;;;8.48;100.00;101089.47;4993835;28;20639;-63
2022/11/30 04:48:18;;;;;;;35.40;11.77;;;8.30;99.90;;;8.59;100.00;101089.72;5009376;28;20641;-63
2022/11/30 04:50:45;;;;;;;27.37;9.83;;;8.30;99.90;;;8.67;100.00;101078.06;5013326;28;20646;-63
2022/11/30 04:53:12;;;;;;;24.27;9.43;;;8.40;99.90;;;8.70;100.00;101088.25;5000293;28;20646;-64
2022/11/30 04:55:39;;;;;;;41.20;13.10;;;8.40;99.90;;;8.64;100.00;101084.25;5013328;28;20668;-65
2022/11/30 04:58:06;;;;;;;18.63;7.70;;;8.40;99.90;;;8.64;100.00;101086.00;5000399;28;20633;-65
2022/11/30 05:00:34;;;;;;;28.23;10.07;;;8.40;99.90;;;8.50;100.00;101084.19;4994553;28;21287;-65
2022/11/30 05:03:01;;;;;;;19.47;9.60;;;8.40;99.90;;;8.50;100.00;101084.19;4993656;28;20617;-64
2022/11/30 05:05:28;;;;;;;19.07;6.70;;;8.30;99.90;;;8.57;100.00;101083.75;4994190;28;20645;-63
2022/11/30 05:07:58;;;;;;;33.33;11.53;;;8.30;99.90;;;8.56;100.00;101089.06;4994880;28;20618;-66
2022/11/30 05:10:27;;;;;;;33.90;11.53;;;8.30;99.90;;;8.56;100.00;101078.66;4993446;28;20662;-64
2022/11/30 05:12:54;;;;;;;33.67;12.13;;;8.30;99.90;;;8.58;100.00;101089.81;4993910;28;20641;-62
2022/11/30 05:15:21;;;;;;;27.87;10.77;;;8.30;99.90;;;8.63;100.00;101085.16;4995265;28;20666;-63
2022/11/30 05:17:48;;;;;;;37.13;12.93;;;8.30;99.90;;;8.70;100.00;101090.88;4993338;28;21232;-63
2022/11/30 05:20:15;;;;;;;30.60;11.37;;;8.40;99.90;;;8.58;100.00;101082.00;5010447;28;20629;-64
2022/11/30 05:22:42;;;;;;;29.73;12.33;;;8.40;99.90;;;8.63;100.00;101094.72;5002874;28;20638;-64
2022/11/30 05:25:09;;;;;;;24.83;10.23;;;8.40;99.90;;;8.59;100.00;101089.72;5010414;28;20693;-64
2022/11/30 05:27:36;;;;;;;31.27;10.10;;;8.40;99.90;;;8.69;100.00;101097.00;5012588;28;20646;-64
2022/11/30 05:30:05;;;;;;;26.70;9.90;;;8.40;99.90;;;8.61;100.00;101089.63;4999696;28;20653;-64
2022/11/30 05:32:32;;;;;;;26.17;9.60;;;8.30;99.90;;;8.62;100.00;101103.47;5025424;28;20766;-63
2022/11/30 05:34:59;;;;;;;23.80;9.20;;;8.40;99.90;;;8.58;100.00;101090.63;5013667;28;20672;-64
2022/11/30 05:37:26;;;;;;;19.23;8.43;;;8.30;99.90;;;8.49;100.00;101098.13;5012383;28;21295;-64
2022/11/30 05:39:53;;;;;;;35.00;11.03;;;8.30;99.90;;;8.50;100.00;101097.19;5010844;28;20642;-63
2022/11/30 05:42:20;;;;;;;29.90;11.37;;;8.30;99.90;;;8.54;100.00;101099.53;5012974;28;21296;-63
2022/11/30 05:44:47;;;;;;;29.00;11.40;;;8.30;99.90;;;8.57;100.00;101103.72;4999380;28;21210;-65
2022/11/30 05:47:15;;;;;;;23.00;10.10;;;8.30;99.90;;;8.34;100.00;101101.56;5009429;28;21068;-65
2022/11/30 05:49:42;;;;;;;26.37;10.70;;;8.20;99.90;;;8.41;100.00;101105.50;4999387;28;20693;-63
2022/11/30 05:52:09;;;;;;;34.37;11.87;;;8.20;99.90;;;8.54;100.00;101106.47;5012937;28;20636;-65
2022/11/30 05:54:36;;;;;;;30.33;11.07;;;8.30;99.90;;;8.63;100.00;101105.97;5011834;28;20626;-62
2022/11/30 05:57:04;;;;;;;20.40;8.17;;;8.30;99.90;;;8.57;100.00;101114.13;4994775;28;21007;-63
2022/11/30 05:59:31;;;;;;;35.80;12.83;;;8.30;99.90;;;8.43;100.00;101108.88;5001683;28;20625;-63
2022/11/30 06:01:58;;;;;;;34.20;14.03;;;8.30;99.90;;;8.53;100.00;101105.66;5004084;28;20676;-64
2022/11/30 06:04:25;;;;;;;34.77;11.77;;;8.40;99.90;;;8.44;100.00;101100.13;5010843;28;20636;-64
2022/11/30 06:06:54;;;;;;;32.60;12.00;;;8.30;99.90;;;8.55;100.00;101102.97;5009965;28;20640;-64
2022/11/30 06:09:22;;;;;;;19.63;9.40;;;8.30;99.90;;;8.49;100.00;101108.53;5007954;28;21038;-64
2022/11/30 06:11:49;;;;;;;25.27;9.70;;;8.30;99.90;;;8.59;100.00;101110.53;4999998;28;20668;-65
2022/11/30 06:14:16;;;;;;;30.50;13.20;;;8.30;99.90;;;8.45;100.00;101109.63;5009130;28;20743;-64
2022/11/30 06:16:43;;;;;;;38.27;12.20;;;8.20;99.90;;;8.49;100.00;101111.13;5010650;28;20711;-61
2022/11/30 06:19:10;;;;;;;45.63;15.17;;;8.20;99.90;;;8.52;100.00;101108.34;5006771;28;20637;-64
2022/11/30 06:21:37;;;;;;;35.53;13.00;;;8.30;99.90;;;8.49;100.00;101108.53;5018464;28;21073;-64
2022/11/30 06:24:04;;;;;;;31.77;11.13;;;8.20;99.90;;;8.37;100.00;101109.19;5017980;28;20638;-64
2022/11/30 06:26:31;;;;;;;30.30;12.03;;;8.20;99.90;;;8.45;100.00;101102.63;5011050;28;21193;-64
2022/11/30 06:28:58;;;;;;;34.67;11.93;;;8.20;99.90;;;8.40;100.00;101112.47;5005421;28;20644;-64
2022/11/30 06:31:25;;;;;;;38.23;14.10;;;8.20;99.90;;;8.41;100.00;101105.50;5011477;28;20637;-64
2022/11/30 06:33:55;;;;;;;35.93;14.40;;;8.20;99.90;;;8.55;100.00;101108.19;4999064;28;20668;-63
2022/11/30 06:36:22;;;;;;;29.73;11.63;;;8.20;99.90;;;8.48;100.00;101109.44;5006214;28;20676;-64
2022/11/30 06:38:50;;;;;;;28.57;11.80;;;8.30;99.90;;;8.49;100.00;101109.38;5022666;28;20995;-64
2022/11/30 06:41:18;;;;;;;33.47;12.20;;;8.30;99.90;;;8.49;100.00;101113.72;5025890;28;21064;-64
2022/11/30 06:43:45;;;;;;;38.17;12.03;;;8.20;99.90;;;8.50;100.00;101104.97;5019015;28;20623;-64
2022/11/30 06:46:12;;;;;;;29.17;11.67;;;8.20;99.90;;;8.52;100.00;101109.19;5001833;28;20647;-64
2022/11/30 06:48:39;;;;;;;26.73;11.50;;;8.20;99.90;;;8.43;100.00;101114.06;5007864;28;20666;-64
2022/11/30 06:51:07;;;;;;;27.10;9.57;;;8.20;99.90;;;8.50;100.00;101117.97;5004505;28;20735;-64
2022/11/30 06:53:35;;;;;;;26.97;10.60;;;8.20;99.90;;;8.51;100.00;101117.06;5010825;28;20681;-64
2022/11/30 06:56:06;;;;;;;26.67;10.53;;;8.30;99.90;;;8.55;100.00;101115.97;4998177;28;20670;-64
2022/11/30 06:58:38;;;;;;;30.93;11.03;;;8.20;99.90;;;8.55;100.00;101118.59;5007080;28;20679;-64
2022/11/30 07:01:08;;;;;;;29.83;10.73;;;8.30;99.90;;;8.56;100.00;101110.69;4998788;28;20750;-64
2022/11/30 07:03:35;;;;;;;21.57;9.57;;;8.30;99.90;;;8.45;100.00;101120.03;4993075;28;21046;-64
2022/11/30 07:06:12;;;;;;;26.17;7.77;;;8.20;99.90;;;8.42;100.00;101125.38;5002741;28;21039;-63
2022/11/30 07:08:41;;;;;;;18.07;7.60;;;8.20;99.90;;;8.50;100.00;101125.78;4996334;28;20638;-63
2022/11/30 07:11:10;;;;;;;20.13;8.30;;;8.20;99.90;;;8.55;100.00;101126.38;5012077;28;20671;-64
2022/11/30 07:13:37;;;;;;;38.13;15.00;;;8.30;99.90;;;8.54;100.00;101127.28;5003865;28;20683;-64
2022/11/30 07:16:07;;;;;;;24.77;10.00;;;8.30;99.90;;;8.58;100.00;101128.81;4998819;28;20668;-64
2022/11/30 07:18:34;;;;;;;40.80;14.83;;;8.30;99.90;;;8.63;100.00;101125.94;5010599;28;20644;-64
2022/11/30 07:21:03;;;;;;;29.63;12.10;;;8.40;99.90;;;8.64;100.00;101132.84;5007989;28;21272;-63
2022/11/30 07:26:23;;;;;;;26.07;9.73;;;8.40;99.90;;;8.65;100.00;101134.50;5011293;28;20629;-64
2022/11/30 07:28:53;;;;;;;32.97;12.77;;;8.40;99.90;;;8.64;100.00;101123.28;4998086;28;20649;-64
2022/11/30 07:31:25;;;;;;;28.53;11.50;;;8.40;99.90;;;8.76;100.00;101127.78;4994114;28;20672;-64
2022/11/30 07:33:52;;;;;;;31.97;11.10;;;8.40;99.90;;;8.77;100.00;101124.25;4990098;28;20638;-64
2022/11/30 07:36:22;;;;;;;33.23;12.57;;;8.50;99.90;;;8.77;100.00;101124.25;5017450;28;20691;-61
2022/11/30 07:38:49;;;;;;;28.13;10.40;;;8.50;99.90;;;8.72;100.00;101126.28;5029332;28;20631;-64
2022/11/30 07:41:16;;;;;;;36.40;13.40;;;8.50;99.90;;;8.83;100.00;101123.91;5000848;28;20661;-63
2022/11/30 07:43:43;;;;;;;34.77;12.97;;;8.50;99.90;;;8.63;100.00;101125.94;4990984;28;20627;-63
2022/11/30 07:46:13;;;;;;;30.30;12.73;;;8.50;99.90;;;8.66;100.00;101123.19;4990773;28;20642;-64
2022/11/30 07:48:40;;;;;;;34.17;12.20;;;8.50;99.90;;;8.65;100.00;101131.91;4990920;28;20986;-63
2022/11/30 07:51:13;;;;;;;31.27;11.20;;;8.40;99.90;;;8.79;100.00;101135.44;4990138;28;20670;-64
2022/11/30 07:53:40;;;;;;;20.40;9.53;;;8.50;99.90;;;8.84;100.00;101128.19;4991132;28;20622;-63
2022/11/30 07:56:11;;;;;;;33.70;11.33;;;8.50;99.90;;;8.83;100.00;101126.50;4993533;28;21036;-63
2022/11/30 07:58:39;;;;;;;26.20;9.20;;;8.50;99.90;;;8.83;100.00;101139.53;4990906;28;21024;-64
2022/11/30 08:01:09;;;;;;;35.93;12.30;;;8.60;99.90;;;8.86;100.00;101134.13;4994931;28;20668;-63
2022/11/30 08:03:37;;;;;;;20.27;7.93;;;8.60;99.90;;;8.85;100.00;101134.22;5007666;28;20628;-63
2022/11/30 08:06:09;;;;;;;31.67;10.70;;;8.60;99.90;;;8.92;100.00;101149.38;5013582;28;20651;-64
2022/11/30 08:08:39;;;;;;;16.00;7.33;;;8.60;99.90;;;8.87;100.00;101146.22;5003912;28;20645;-65
2022/11/30 08:11:08;;;;;;;34.00;10.30;;;8.60;99.90;;;8.87;100.00;101148.00;5014887;28;21265;-62
2022/11/30 08:13:35;;;;;;;16.87;6.90;;;8.60;99.90;;;8.85;100.00;101147.25;5003087;28;20663;-64
2022/11/30 08:16:05;;;;;;;19.43;7.90;;;8.60;99.90;;;8.96;100.00;101152.69;5004239;28;20661;-63
2022/11/30 08:18:33;;;;;;;25.73;10.00;;;8.60;99.90;;;8.84;100.00;101151.59;5009890;28;21180;-64
2022/11/30 08:21:03;;;;;;;23.30;8.50;;;8.60;99.90;;;8.72;100.00;101149.69;5019057;23;20745;-65
2022/11/30 08:23:33;;;;;;;26.47;11.03;;;8.60;99.90;;;8.82;100.00;101147.41;5060480;28;20680;-66
2022/11/30 08:26:13;;;;;;;28.07;11.97;;;8.60;99.90;;;8.83;100.00;101147.34;5053169;28;20853;-64
2022/11/30 08:28:43;;;;;;;19.70;9.20;;;8.60;99.90;;;8.91;100.00;101155.53;5050096;28;20628;-64
2022/11/30 08:31:15;;;;;;;27.97;10.20;;;8.60;99.90;;;8.90;100.00;101156.44;5049989;28;21247;-65
2022/11/30 08:33:43;;;;;;;24.87;9.97;;;8.60;99.90;;;8.81;100.00;101154.38;5032083;28;20640;-64
2022/11/30 08:36:16;;;;;;;27.53;10.30;;;8.60;99.90;;;8.81;100.00;101151.78;5031152;28;20679;-66
2022/11/30 08:38:44;;;;;;;27.43;11.07;;;8.60;99.90;;;8.95;100.00;101154.44;5028667;28;20690;-66
2022/11/30 08:41:15;;;;;;;25.57;11.20;;;8.70;99.90;;;8.95;100.00;101164.84;5031586;28;20645;-64
2022/11/30 08:43:42;;;;;;;29.67;11.10;;;8.70;99.90;;;9.11;100.00;101163.06;5032830;28;20637;-66
2022/11/30 08:46:12;;;;;;;29.00;10.60;;;8.70;99.90;;;9.09;100.00;101166.69;5050986;28;20631;-64
2022/11/30 08:48:59;;;;;;;32.30;10.33;;;8.80;99.90;;;9.03;100.00;101164.44;5042503;28;21185;-68
2022/11/30 08:51:47;;;;;;;25.33;9.77;;;8.80;99.90;;;9.04;100.00;101172.13;5035080;28;20694;-64
2022/11/30 08:54:33;;;;;;;17.90;7.83;;;8.80;99.90;;;9.07;100.00;101169.34;5036637;28;21071;-67
2022/11/30 08:57:00;;;;;;;20.03;8.90;;;8.80;99.90;;;9.05;100.00;101170.38;5037713;28;20652;-65
2022/11/30 08:59:30;;;;;;;26.70;10.67;;;8.80;99.90;;;8.93;100.00;101176.25;5036075;28;20620;-64
2022/11/30 09:01:57;;;;;;;16.20;6.50;;;8.70;99.90;;;8.93;100.00;101179.72;5033349;28;20656;-64
2022/11/30 09:04:24;;;;;;;23.57;9.60;;;8.70;99.90;;;8.83;100.00;101183.75;5032772;28;20632;-64
2022/11/30 09:06:51;;;;;;;18.40;7.90;;;8.70;99.90;;;9.02;100.00;101181.81;5034806;28;20692;-64
2022/11/30 09:09:18;;;;;;;25.00;11.00;;;8.70;99.90;;;8.98;100.00;101184.66;5046474;28;20647;-68
2022/11/30 09:11:45;;;;;;;19.40;8.63;;;8.70;99.90;;;8.99;100.00;101187.16;5037053;28;20658;-64
2022/11/30 09:14:12;;;;;;;10.53;5.10;;;8.70;99.90;;;8.85;100.00;101189.72;5033320;28;21160;-64
2022/11/30 09:16:39;;;;;;;21.97;8.50;;;8.70;99.90;;;9.02;100.00;101188.75;5031764;28;20687;-65
2022/11/30 09:19:06;;;;;;;22.50;8.07;;;8.70;99.90;;;9.02;100.00;101191.38;5032618;28;20616;-66
2022/11/30 09:21:33;;;;;;;15.13;5.67;;;8.70;99.90;;;9.05;100.00;101192.03;5035570;28;20654;-65
2022/11/30 09:24:00;;;;;;;23.40;8.27;;;8.70;99.90;;;9.10;100.00;101194.38;5047316;28;20629;-66
2022/11/30 09:26:26;;;;;;;33.60;12.27;;;8.80;99.90;;;8.92;100.00;101190.22;5031325;28;21471;-64
2022/11/30 09:28:53;;;;;;;30.67;9.53;;;8.70;99.90;;;9.02;100.00;101197.41;5031489;28;20982;-64
2022/11/30 09:31:23;;;;;;;27.13;8.83;;;8.70;99.90;;;9.15;100.00;101203.63;5033779;28;21088;-64
2022/11/30 09:33:51;;;;;;;25.00;9.00;;;8.80;99.90;;;9.08;100.00;101206.63;5032512;28;20633;-64
2022/11/30 09:36:20;;;;;;;15.83;6.90;;;8.80;99.90;;;9.21;100.00;101200.66;5031844;28;20672;-63
2022/11/30 09:38:47;;;;;;;26.40;11.50;;;8.80;99.90;;;9.05;100.00;101199.84;5032243;28;21192;-69
2022/11/30 09:41:33;;;;;;;31.47;10.83;;;8.80;99.90;;;8.99;100.00;101196.72;5014528;28;20625;-64
2022/11/30 09:44:54;;;;;;;32.63;11.80;;;8.80;99.90;;;9.14;100.00;101201.91;5041667;28;20634;-65
2022/11/30 09:47:54;;;;;;;33.40;13.20;;;8.80;99.90;;;9.12;100.00;101201.16;5010743;28;20993;-64
2022/11/30 09:50:25;;;;;;;25.20;10.23;;;8.90;99.90;;;9.15;100.00;101200.16;5036240;28;21047;-64
2022/11/30 09:52:57;;;;;;;34.43;11.63;;;8.90;99.90;;;9.10;100.00;101194.38;5014273;28;20625;-64
2022/11/30 09:55:38;;;;;;;39.60;14.13;;;8.80;99.90;;;9.34;100.00;101198.19;5030864;28;21384;-64
2022/11/30 09:58:06;;;;;;;30.57;12.30;;;8.90;99.90;;;9.44;100.00;101185.44;5014795;28;20620;-65
2022/11/30 10:00:35;;;;;;;30.00;13.00;;;9.00;99.90;;;9.33;100.00;101191.28;5031509;28;21172;-65
2022/11/30 10:03:04;;;;;;;32.10;13.10;;;9.00;99.90;;;9.45;100.00;101190.59;5027187;28;20633;-64
2022/11/30 10:06:08;;;;;;;28.83;10.57;;;9.10;99.90;;;9.42;100.00;101189.91;5028634;28;20713;-66
2022/11/30 10:08:50;;;;;;;26.07;9.93;;;9.10;99.90;;;9.42;100.00;101193.34;5013200;28;21196;-65
2022/11/30 10:11:27;;;;;;;24.23;9.23;;;9.10;99.90;;;9.52;100.00;101193.69;5031757;28;20891;-64
2022/11/30 10:14:02;;;;;;;15.17;6.70;;;9.10;99.90;;;9.48;100.00;101195.59;5025390;28;20667;-67
2022/11/30 10:17:07;;;;;;;24.20;9.70;;;9.20;99.90;;;9.50;100.00;101193.75;5041128;28;20656;-65
2022/11/30 10:20:21;;;;;;;27.23;10.87;;;9.20;99.90;;;9.57;100.00;101189.84;5030606;28;20647;-66
2022/11/30 10:23:28;;;;;;;22.60;9.53;;;9.10;99.90;;;9.36;100.00;101186.75;5045448;28;21016;-68
2022/11/30 10:26:18;;;;;;;14.50;7.50;;;9.20;99.90;;;9.40;100.00;101187.41;5018147;28;20632;-66